sensor_id;sensor_type;location;lat;lon;timestamp;P1;durP1;ratioP1;P2;durP2;ratioP2
13108;SDS011;6620;53.734;11.510;2022-08-03T00:01:04;5.93;;;1.92;;
13108;SDS011;6620;53.734;11.510;2022-08-03T00:03:29;4.93;;;1.00;;
13108;SDS011;6620;53.734;11.510;2022-08-03T00:05:54;4.63;;;1.75;;
13108;SDS011;6620;53.734;11.510;2022-08-03T00:08:19;3.00;;;1.02;;
13108;SDS011;6620;53.734;11.510;2022-08-03T00:10:44;5.25;;;1.30;;
13108;SDS011;6620;53.734;11.510;2022-08-03T00:13:10;4.13;;;0.98;;
13108;SDS011;6620;53.734;11.510;2022-08-03T00:15:37;2.95;;;1.20;;
13108;SDS011;6620;53.734;11.510;2022-08-03T00:18:02;1.73;;;0.90;;
13108;SDS011;6620;53.734;11.510;2022-08-03T00:20:28;3.78;;;1.20;;
13108;SDS011;6620;53.734;11.510;2022-08-03T00:22:53;4.37;;;0.97;;
13108;SDS011;6620;53.734;11.510;2022-08-03T00:25:18;3.95;;;1.95;;
13108;SDS011;6620;53.734;11.510;2022-08-03T00:27:43;4.72;;;1.35;;
13108;SDS011;6620;53.734;11.510;2022-08-03T00:30:09;2.10;;;1.00;;
13108;SDS011;6620;53.734;11.510;2022-08-03T00:32:35;4.45;;;0.80;;
13108;SDS011;6620;53.734;11.510;2022-08-03T00:35:00;4.65;;;1.23;;
13108;SDS011;6620;53.734;11.510;2022-08-03T00:37:25;1.63;;;1.30;;
13108;SDS011;6620;53.734;11.510;2022-08-03T00:39:51;4.57;;;1.10;;
13108;SDS011;6620;53.734;11.510;2022-08-03T00:42:16;3.60;;;1.10;;
13108;SDS011;6620;53.734;11.510;2022-08-03T00:44:42;3.40;;;1.10;;
13108;SDS011;6620;53.734;11.510;2022-08-03T00:47:08;3.70;;;1.00;;
13108;SDS011;6620;53.734;11.510;2022-08-03T00:49:34;5.03;;;1.13;;
13108;SDS011;6620;53.734;11.510;2022-08-03T00:51:59;3.90;;;1.40;;
13108;SDS011;6620;53.734;11.510;2022-08-03T00:54:25;3.33;;;1.13;;
13108;SDS011;6620;53.734;11.510;2022-08-03T00:56:51;2.60;;;1.55;;
13108;SDS011;6620;53.734;11.510;2022-08-03T00:59:16;2.42;;;1.10;;
13108;SDS011;6620;53.734;11.510;2022-08-03T01:01:42;5.43;;;1.33;;
13108;SDS011;6620;53.734;11.510;2022-08-03T01:04:07;5.10;;;1.00;;
13108;SDS011;6620;53.734;11.510;2022-08-03T01:06:33;2.60;;;0.97;;
13108;SDS011;6620;53.734;11.510;2022-08-03T01:09:16;3.38;;;1.20;;
13108;SDS011;6620;53.734;11.510;2022-08-03T01:14:08;2.88;;;1.10;;
13108;SDS011;6620;53.734;11.510;2022-08-03T01:16:37;3.95;;;1.30;;
13108;SDS011;6620;53.734;11.510;2022-08-03T01:19:48;3.45;;;1.10;;
13108;SDS011;6620;53.734;11.510;2022-08-03T01:27:06;4.30;;;1.25;;
13108;SDS011;6620;53.734;11.510;2022-08-03T01:32:01;2.30;;;1.25;;
13108;SDS011;6620;53.734;11.510;2022-08-03T01:34:28;3.97;;;1.52;;
13108;SDS011;6620;53.734;11.510;2022-08-03T01:36:55;3.97;;;1.42;;
13108;SDS011;6620;53.734;11.510;2022-08-03T01:39:21;2.22;;;1.20;;
13108;SDS011;6620;53.734;11.510;2022-08-03T01:41:49;3.67;;;1.30;;
13108;SDS011;6620;53.734;11.510;2022-08-03T01:44:17;5.82;;;1.52;;
13108;SDS011;6620;53.734;11.510;2022-08-03T01:46:42;4.70;;;1.20;;
13108;SDS011;6620;53.734;11.510;2022-08-03T01:49:10;4.30;;;1.42;;
13108;SDS011;6620;53.734;11.510;2022-08-03T01:51:36;2.58;;;1.40;;
13108;SDS011;6620;53.734;11.510;2022-08-03T01:54:02;10.23;;;1.52;;
13108;SDS011;6620;53.734;11.510;2022-08-03T01:56:28;3.17;;;1.38;;
13108;SDS011;6620;53.734;11.510;2022-08-03T01:58:54;2.58;;;1.20;;
13108;SDS011;6620;53.734;11.510;2022-08-03T02:01:20;2.33;;;1.33;;
13108;SDS011;6620;53.734;11.510;2022-08-03T02:03:46;1.90;;;1.17;;
13108;SDS011;6620;53.734;11.510;2022-08-03T02:06:13;2.17;;;1.20;;
13108;SDS011;6620;53.734;11.510;2022-08-03T02:08:39;2.70;;;1.20;;
13108;SDS011;6620;53.734;11.510;2022-08-03T02:11:05;3.97;;;1.48;;
13108;SDS011;6620;53.734;11.510;2022-08-03T02:13:32;3.53;;;1.83;;
13108;SDS011;6620;53.734;11.510;2022-08-03T02:15:58;8.93;;;1.30;;
13108;SDS011;6620;53.734;11.510;2022-08-03T02:18:23;1.60;;;1.20;;
13108;SDS011;6620;53.734;11.510;2022-08-03T02:20:49;1.70;;;1.20;;
13108;SDS011;6620;53.734;11.510;2022-08-03T02:23:16;3.35;;;1.42;;
13108;SDS011;6620;53.734;11.510;2022-08-03T02:25:43;1.88;;;1.30;;
13108;SDS011;6620;53.734;11.510;2022-08-03T02:28:10;5.28;;;1.42;;
13108;SDS011;6620;53.734;11.510;2022-08-03T02:30:37;3.67;;;1.42;;
13108;SDS011;6620;53.734;11.510;2022-08-03T02:33:03;4.47;;;1.38;;
13108;SDS011;6620;53.734;11.510;2022-08-03T02:35:28;2.58;;;1.35;;
13108;SDS011;6620;53.734;11.510;2022-08-03T02:37:55;3.35;;;1.35;;
13108;SDS011;6620;53.734;11.510;2022-08-03T02:40:21;2.88;;;1.40;;
13108;SDS011;6620;53.734;11.510;2022-08-03T02:42:48;4.30;;;1.17;;
13108;SDS011;6620;53.734;11.510;2022-08-03T02:45:15;1.67;;;1.05;;
13108;SDS011;6620;53.734;11.510;2022-08-03T02:47:40;2.08;;;1.38;;
13108;SDS011;6620;53.734;11.510;2022-08-03T02:50:08;2.08;;;1.13;;
13108;SDS011;6620;53.734;11.510;2022-08-03T02:52:34;1.70;;;1.10;;
13108;SDS011;6620;53.734;11.510;2022-08-03T02:55:01;2.58;;;1.50;;
13108;SDS011;6620;53.734;11.510;2022-08-03T02:57:27;2.15;;;1.30;;
13108;SDS011;6620;53.734;11.510;2022-08-03T02:59:54;3.22;;;1.60;;
13108;SDS011;6620;53.734;11.510;2022-08-03T03:02:19;2.80;;;1.27;;
13108;SDS011;6620;53.734;11.510;2022-08-03T03:04:45;3.85;;;1.77;;
13108;SDS011;6620;53.734;11.510;2022-08-03T03:07:11;5.63;;;1.67;;
13108;SDS011;6620;53.734;11.510;2022-08-03T03:09:37;5.63;;;1.30;;
13108;SDS011;6620;53.734;11.510;2022-08-03T03:12:02;1.87;;;1.23;;
13108;SDS011;6620;53.734;11.510;2022-08-03T03:14:28;3.17;;;1.50;;
13108;SDS011;6620;53.734;11.510;2022-08-03T03:16:53;2.22;;;1.13;;
13108;SDS011;6620;53.734;11.510;2022-08-03T03:19:19;1.70;;;1.33;;
13108;SDS011;6620;53.734;11.510;2022-08-03T03:21:44;2.42;;;1.35;;
13108;SDS011;6620;53.734;11.510;2022-08-03T03:24:10;2.97;;;1.35;;
13108;SDS011;6620;53.734;11.510;2022-08-03T03:26:36;4.05;;;1.40;;
13108;SDS011;6620;53.734;11.510;2022-08-03T03:29:02;2.47;;;1.60;;
13108;SDS011;6620;53.734;11.510;2022-08-03T03:31:27;2.38;;;1.42;;
13108;SDS011;6620;53.734;11.510;2022-08-03T03:33:52;2.75;;;1.42;;
13108;SDS011;6620;53.734;11.510;2022-08-03T03:36:18;2.55;;;1.45;;
13108;SDS011;6620;53.734;11.510;2022-08-03T03:38:44;2.33;;;1.20;;
13108;SDS011;6620;53.734;11.510;2022-08-03T03:41:09;3.35;;;1.40;;
13108;SDS011;6620;53.734;11.510;2022-08-03T03:43:34;3.30;;;1.50;;
13108;SDS011;6620;53.734;11.510;2022-08-03T03:45:59;2.85;;;1.60;;
13108;SDS011;6620;53.734;11.510;2022-08-03T03:48:25;3.40;;;1.60;;
13108;SDS011;6620;53.734;11.510;2022-08-03T03:50:50;1.73;;;1.40;;
13108;SDS011;6620;53.734;11.510;2022-08-03T03:53:15;2.40;;;1.60;;
13108;SDS011;6620;53.734;11.510;2022-08-03T03:55:41;1.52;;;1.10;;
13108;SDS011;6620;53.734;11.510;2022-08-03T03:58:06;2.28;;;1.40;;
13108;SDS011;6620;53.734;11.510;2022-08-03T04:00:32;2.47;;;1.60;;
13108;SDS011;6620;53.734;11.510;2022-08-03T04:02:57;1.52;;;1.25;;
13108;SDS011;6620;53.734;11.510;2022-08-03T04:05:23;2.58;;;1.73;;
13108;SDS011;6620;53.734;11.510;2022-08-03T04:08:08;1.55;;;1.45;;
13108;SDS011;6620;53.734;11.510;2022-08-03T04:13:31;2.25;;;1.73;;
13108;SDS011;6620;53.734;11.510;2022-08-03T04:15:57;3.72;;;1.80;;
13108;SDS011;6620;53.734;11.510;2022-08-03T04:18:22;1.73;;;1.50;;
13108;SDS011;6620;53.734;11.510;2022-08-03T04:20:48;6.50;;;1.40;;
13108;SDS011;6620;53.734;11.510;2022-08-03T04:23:14;5.50;;;1.60;;
13108;SDS011;6620;53.734;11.510;2022-08-03T04:25:40;4.38;;;1.67;;
13108;SDS011;6620;53.734;11.510;2022-08-03T04:28:07;8.82;;;1.73;;
13108;SDS011;6620;53.734;11.510;2022-08-03T04:30:32;4.43;;;1.70;;
13108;SDS011;6620;53.734;11.510;2022-08-03T04:33:00;5.63;;;1.83;;
13108;SDS011;6620;53.734;11.510;2022-08-03T04:35:27;2.78;;;1.38;;
13108;SDS011;6620;53.734;11.510;2022-08-03T04:37:53;2.03;;;1.80;;
13108;SDS011;6620;53.734;11.510;2022-08-03T04:40:21;6.38;;;2.53;;
13108;SDS011;6620;53.734;11.510;2022-08-03T04:42:49;2.33;;;1.20;;
13108;SDS011;6620;53.734;11.510;2022-08-03T04:45:15;2.92;;;1.48;;
13108;SDS011;6620;53.734;11.510;2022-08-03T04:47:40;3.45;;;1.50;;
13108;SDS011;6620;53.734;11.510;2022-08-03T04:50:06;2.15;;;1.35;;
13108;SDS011;6620;53.734;11.510;2022-08-03T04:52:31;3.65;;;1.60;;
13108;SDS011;6620;53.734;11.510;2022-08-03T04:54:58;3.10;;;1.50;;
13108;SDS011;6620;53.734;11.510;2022-08-03T04:57:23;2.13;;;1.93;;
13108;SDS011;6620;53.734;11.510;2022-08-03T04:59:48;1.27;;;1.17;;
13108;SDS011;6620;53.734;11.510;2022-08-03T05:02:17;3.30;;;1.65;;
13108;SDS011;6620;53.734;11.510;2022-08-03T05:04:42;1.63;;;1.30;;
13108;SDS011;6620;53.734;11.510;2022-08-03T05:07:10;4.78;;;1.60;;
13108;SDS011;6620;53.734;11.510;2022-08-03T05:09:35;1.60;;;1.50;;
13108;SDS011;6620;53.734;11.510;2022-08-03T05:12:02;10.63;;;1.48;;
13108;SDS011;6620;53.734;11.510;2022-08-03T05:14:27;2.63;;;1.30;;
13108;SDS011;6620;53.734;11.510;2022-08-03T05:16:52;4.07;;;1.23;;
13108;SDS011;6620;53.734;11.510;2022-08-03T05:19:17;1.60;;;1.50;;
13108;SDS011;6620;53.734;11.510;2022-08-03T05:21:43;2.03;;;1.83;;
13108;SDS011;6620;53.734;11.510;2022-08-03T05:24:08;2.05;;;1.60;;
13108;SDS011;6620;53.734;11.510;2022-08-03T05:26:33;2.03;;;1.20;;
13108;SDS011;6620;53.734;11.510;2022-08-03T05:28:58;2.50;;;1.50;;
13108;SDS011;6620;53.734;11.510;2022-08-03T05:31:23;2.40;;;1.43;;
13108;SDS011;6620;53.734;11.510;2022-08-03T05:33:49;3.33;;;1.40;;
13108;SDS011;6620;53.734;11.510;2022-08-03T05:36:14;1.63;;;0.95;;
13108;SDS011;6620;53.734;11.510;2022-08-03T05:38:39;1.95;;;1.70;;
13108;SDS011;6620;53.734;11.510;2022-08-03T05:41:05;2.10;;;1.60;;
13108;SDS011;6620;53.734;11.510;2022-08-03T05:43:30;2.50;;;1.17;;
13108;SDS011;6620;53.734;11.510;2022-08-03T05:45:55;2.47;;;1.40;;
13108;SDS011;6620;53.734;11.510;2022-08-03T05:48:21;3.05;;;1.15;;
13108;SDS011;6620;53.734;11.510;2022-08-03T05:50:46;3.90;;;1.23;;
13108;SDS011;6620;53.734;11.510;2022-08-03T05:53:11;1.03;;;0.93;;
13108;SDS011;6620;53.734;11.510;2022-08-03T05:55:36;2.47;;;1.40;;
13108;SDS011;6620;53.734;11.510;2022-08-03T05:58:01;2.50;;;1.10;;
13108;SDS011;6620;53.734;11.510;2022-08-03T06:00:27;1.88;;;1.10;;
13108;SDS011;6620;53.734;11.510;2022-08-03T06:02:53;3.45;;;1.35;;
13108;SDS011;6620;53.734;11.510;2022-08-03T06:05:18;2.80;;;1.30;;
13108;SDS011;6620;53.734;11.510;2022-08-03T06:07:43;2.90;;;1.17;;
13108;SDS011;6620;53.734;11.510;2022-08-03T06:10:08;2.00;;;1.42;;
13108;SDS011;6620;53.734;11.510;2022-08-03T06:12:34;1.50;;;1.40;;
13108;SDS011;6620;53.734;11.510;2022-08-03T06:15:05;4.30;;;1.23;;
13108;SDS011;6620;53.734;11.510;2022-08-03T06:17:30;5.45;;;1.55;;
13108;SDS011;6620;53.734;11.510;2022-08-03T06:19:55;4.50;;;1.10;;
13108;SDS011;6620;53.734;11.510;2022-08-03T06:22:21;2.35;;;1.52;;
13108;SDS011;6620;53.734;11.510;2022-08-03T06:24:46;4.60;;;1.60;;
13108;SDS011;6620;53.734;11.510;2022-08-03T06:27:11;3.47;;;1.30;;
13108;SDS011;6620;53.734;11.510;2022-08-03T06:29:37;2.42;;;1.20;;
13108;SDS011;6620;53.734;11.510;2022-08-03T06:32:02;1.60;;;0.80;;
13108;SDS011;6620;53.734;11.510;2022-08-03T06:34:27;2.00;;;1.15;;
13108;SDS011;6620;53.734;11.510;2022-08-03T06:36:52;3.08;;;1.50;;
13108;SDS011;6620;53.734;11.510;2022-08-03T06:39:18;6.65;;;1.55;;
13108;SDS011;6620;53.734;11.510;2022-08-03T06:41:43;2.28;;;1.10;;
13108;SDS011;6620;53.734;11.510;2022-08-03T06:44:09;2.00;;;0.90;;
13108;SDS011;6620;53.734;11.510;2022-08-03T06:46:34;1.73;;;1.00;;
13108;SDS011;6620;53.734;11.510;2022-08-03T06:48:59;1.10;;;1.10;;
13108;SDS011;6620;53.734;11.510;2022-08-03T06:51:25;1.55;;;1.45;;
13108;SDS011;6620;53.734;11.510;2022-08-03T06:53:50;2.53;;;1.50;;
13108;SDS011;6620;53.734;11.510;2022-08-03T06:56:15;5.57;;;1.47;;
13108;SDS011;6620;53.734;11.510;2022-08-03T06:58:40;2.10;;;1.33;;
13108;SDS011;6620;53.734;11.510;2022-08-03T07:01:05;2.00;;;1.30;;
13108;SDS011;6620;53.734;11.510;2022-08-03T07:03:31;1.60;;;1.17;;
13108;SDS011;6620;53.734;11.510;2022-08-03T07:05:56;4.93;;;1.23;;
13108;SDS011;6620;53.734;11.510;2022-08-03T07:08:21;2.20;;;1.30;;
13108;SDS011;6620;53.734;11.510;2022-08-03T07:10:48;1.35;;;1.23;;
13108;SDS011;6620;53.734;11.510;2022-08-03T07:13:13;1.70;;;1.20;;
13108;SDS011;6620;53.734;11.510;2022-08-03T07:15:38;2.95;;;1.30;;
13108;SDS011;6620;53.734;11.510;2022-08-03T07:18:04;2.33;;;1.70;;
13108;SDS011;6620;53.734;11.510;2022-08-03T07:20:29;1.70;;;1.20;;
13108;SDS011;6620;53.734;11.510;2022-08-03T07:22:54;3.38;;;1.33;;
13108;SDS011;6620;53.734;11.510;2022-08-03T07:25:20;6.07;;;1.48;;
13108;SDS011;6620;53.734;11.510;2022-08-03T07:27:45;2.22;;;1.40;;
13108;SDS011;6620;53.734;11.510;2022-08-03T07:30:11;2.40;;;1.40;;
13108;SDS011;6620;53.734;11.510;2022-08-03T07:32:37;5.63;;;1.80;;
13108;SDS011;6620;53.734;11.510;2022-08-03T07:35:03;4.20;;;1.33;;
13108;SDS011;6620;53.734;11.510;2022-08-03T07:37:29;1.83;;;1.30;;
13108;SDS011;6620;53.734;11.510;2022-08-03T07:39:54;3.30;;;1.60;;
13108;SDS011;6620;53.734;11.510;2022-08-03T07:42:19;3.47;;;1.30;;
13108;SDS011;6620;53.734;11.510;2022-08-03T07:44:45;1.23;;;1.10;;
13108;SDS011;6620;53.734;11.510;2022-08-03T07:47:10;3.20;;;1.50;;
13108;SDS011;6620;53.734;11.510;2022-08-03T07:49:39;3.97;;;1.30;;
13108;SDS011;6620;53.734;11.510;2022-08-03T07:52:04;4.60;;;1.58;;
13108;SDS011;6620;53.734;11.510;2022-08-03T07:54:48;1.63;;;1.48;;
13108;SDS011;6620;53.734;11.510;2022-08-03T07:57:14;1.40;;;1.30;;
13108;SDS011;6620;53.734;11.510;2022-08-03T07:59:39;1.30;;;1.20;;
13108;SDS011;6620;53.734;11.510;2022-08-03T08:02:05;2.17;;;1.50;;
13108;SDS011;6620;53.734;11.510;2022-08-03T08:04:30;1.63;;;1.30;;
13108;SDS011;6620;53.734;11.510;2022-08-03T08:06:55;5.05;;;1.50;;
13108;SDS011;6620;53.734;11.510;2022-08-03T08:09:21;2.40;;;1.23;;
13108;SDS011;6620;53.734;11.510;2022-08-03T08:11:48;1.33;;;1.10;;
13108;SDS011;6620;53.734;11.510;2022-08-03T08:14:13;2.15;;;1.35;;
13108;SDS011;6620;53.734;11.510;2022-08-03T08:16:38;1.58;;;1.20;;
13108;SDS011;6620;53.734;11.510;2022-08-03T08:19:03;4.10;;;1.37;;
13108;SDS011;6620;53.734;11.510;2022-08-03T08:21:28;2.93;;;1.10;;
13108;SDS011;6620;53.734;11.510;2022-08-03T08:23:54;1.93;;;1.03;;
13108;SDS011;6620;53.734;11.510;2022-08-03T08:26:19;3.95;;;1.10;;
13108;SDS011;6620;53.734;11.510;2022-08-03T08:28:44;3.35;;;1.30;;
13108;SDS011;6620;53.734;11.510;2022-08-03T08:31:09;2.75;;;1.67;;
13108;SDS011;6620;53.734;11.510;2022-08-03T08:33:35;1.00;;;0.95;;
13108;SDS011;6620;53.734;11.510;2022-08-03T08:36:00;2.40;;;1.10;;
13108;SDS011;6620;53.734;11.510;2022-08-03T08:38:25;2.85;;;1.45;;
13108;SDS011;6620;53.734;11.510;2022-08-03T08:40:53;2.10;;;1.03;;
13108;SDS011;6620;53.734;11.510;2022-08-03T08:43:18;2.78;;;1.13;;
13108;SDS011;6620;53.734;11.510;2022-08-03T08:45:44;0.97;;;0.80;;
13108;SDS011;6620;53.734;11.510;2022-08-03T08:48:09;2.97;;;1.33;;
13108;SDS011;6620;53.734;11.510;2022-08-03T08:50:36;2.58;;;1.02;;
13108;SDS011;6620;53.734;11.510;2022-08-03T08:53:02;2.00;;;1.10;;
13108;SDS011;6620;53.734;11.510;2022-08-03T08:55:31;0.95;;;0.93;;
13108;SDS011;6620;53.734;11.510;2022-08-03T08:58:01;1.85;;;0.82;;
13108;SDS011;6620;53.734;11.510;2022-08-03T09:00:29;2.85;;;1.13;;
13108;SDS011;6620;53.734;11.510;2022-08-03T09:02:55;2.58;;;1.00;;
13108;SDS011;6620;53.734;11.510;2022-08-03T09:05:20;2.25;;;0.70;;
13108;SDS011;6620;53.734;11.510;2022-08-03T09:07:45;2.25;;;0.85;;
13108;SDS011;6620;53.734;11.510;2022-08-03T09:10:11;1.15;;;0.70;;
13108;SDS011;6620;53.734;11.510;2022-08-03T09:12:58;1.65;;;1.05;;
13108;SDS011;6620;53.734;11.510;2022-08-03T09:17:49;2.05;;;1.10;;
13108;SDS011;6620;53.734;11.510;2022-08-03T09:20:14;0.98;;;0.90;;
13108;SDS011;6620;53.734;11.510;2022-08-03T09:22:53;3.22;;;1.15;;
13108;SDS011;6620;53.734;11.510;2022-08-03T09:25:18;0.70;;;0.70;;
13108;SDS011;6620;53.734;11.510;2022-08-03T09:27:44;3.15;;;0.90;;
13108;SDS011;6620;53.734;11.510;2022-08-03T09:30:14;2.80;;;1.35;;
13108;SDS011;6620;53.734;11.510;2022-08-03T09:32:39;3.88;;;1.30;;
13108;SDS011;6620;53.734;11.510;2022-08-03T09:35:05;2.47;;;0.77;;
13108;SDS011;6620;53.734;11.510;2022-08-03T09:37:30;0.77;;;0.77;;
13108;SDS011;6620;53.734;11.510;2022-08-03T09:39:56;3.60;;;0.73;;
13108;SDS011;6620;53.734;11.510;2022-08-03T09:42:21;1.70;;;0.80;;
13108;SDS011;6620;53.734;11.510;2022-08-03T09:44:48;3.38;;;1.00;;
13108;SDS011;6620;53.734;11.510;2022-08-03T09:47:34;2.25;;;0.70;;
13108;SDS011;6620;53.734;11.510;2022-08-03T09:50:03;1.33;;;1.15;;
13108;SDS011;6620;53.734;11.510;2022-08-03T09:52:33;1.50;;;0.90;;
13108;SDS011;6620;53.734;11.510;2022-08-03T09:54:58;1.77;;;0.70;;
13108;SDS011;6620;53.734;11.510;2022-08-03T09:57:25;1.00;;;0.80;;
13108;SDS011;6620;53.734;11.510;2022-08-03T09:59:51;1.38;;;0.98;;
13108;SDS011;6620;53.734;11.510;2022-08-03T10:02:20;2.60;;;1.13;;
13108;SDS011;6620;53.734;11.510;2022-08-03T10:04:46;4.15;;;1.42;;
13108;SDS011;6620;53.734;11.510;2022-08-03T10:07:12;2.55;;;1.50;;
13108;SDS011;6620;53.734;11.510;2022-08-03T10:09:37;1.17;;;0.80;;
13108;SDS011;6620;53.734;11.510;2022-08-03T10:12:16;2.58;;;0.90;;
13108;SDS011;6620;53.734;11.510;2022-08-03T10:14:41;2.00;;;0.70;;
13108;SDS011;6620;53.734;11.510;2022-08-03T10:17:09;3.70;;;1.20;;
13108;SDS011;6620;53.734;11.510;2022-08-03T10:19:34;1.90;;;1.10;;
13108;SDS011;6620;53.734;11.510;2022-08-03T10:22:02;1.27;;;0.95;;
13108;SDS011;6620;53.734;11.510;2022-08-03T10:24:28;1.48;;;0.90;;
13108;SDS011;6620;53.734;11.510;2022-08-03T10:26:56;2.42;;;1.35;;
13108;SDS011;6620;53.734;11.510;2022-08-03T10:31:50;3.20;;;0.85;;
13108;SDS011;6620;53.734;11.510;2022-08-03T10:34:20;1.48;;;1.27;;
13108;SDS011;6620;53.734;11.510;2022-08-03T10:36:46;3.03;;;1.10;;
13108;SDS011;6620;53.734;11.510;2022-08-03T10:39:13;3.28;;;0.95;;
13108;SDS011;6620;53.734;11.510;2022-08-03T10:41:39;1.40;;;0.90;;
13108;SDS011;6620;53.734;11.510;2022-08-03T10:44:05;1.98;;;0.90;;
13108;SDS011;6620;53.734;11.510;2022-08-03T10:46:32;1.90;;;0.90;;
13108;SDS011;6620;53.734;11.510;2022-08-03T10:48:57;3.22;;;0.75;;
13108;SDS011;6620;53.734;11.510;2022-08-03T10:51:23;3.72;;;1.00;;
13108;SDS011;6620;53.734;11.510;2022-08-03T10:53:48;3.78;;;0.93;;
13108;SDS011;6620;53.734;11.510;2022-08-03T10:59:19;2.75;;;1.00;;
13108;SDS011;6620;53.734;11.510;2022-08-03T11:02:01;4.30;;;0.88;;
13108;SDS011;6620;53.734;11.510;2022-08-03T11:04:27;2.05;;;1.00;;
13108;SDS011;6620;53.734;11.510;2022-08-03T11:09:47;3.95;;;1.30;;
13108;SDS011;6620;53.734;11.510;2022-08-03T11:14:50;2.65;;;1.27;;
13108;SDS011;6620;53.734;11.510;2022-08-03T11:17:16;4.95;;;1.42;;
13108;SDS011;6620;53.734;11.510;2022-08-03T11:19:43;1.80;;;0.93;;
13108;SDS011;6620;53.734;11.510;2022-08-03T11:22:08;1.42;;;0.77;;
13108;SDS011;6620;53.734;11.510;2022-08-03T11:30:04;2.47;;;1.08;;
13108;SDS011;6620;53.734;11.510;2022-08-03T11:35:56;1.35;;;0.85;;
13108;SDS011;6620;53.734;11.510;2022-08-03T11:48:25;3.80;;;1.58;;
13108;SDS011;6620;53.734;11.510;2022-08-03T11:50:51;2.17;;;0.95;;
13108;SDS011;6620;53.734;11.510;2022-08-03T11:53:17;2.63;;;1.00;;
13108;SDS011;6620;53.734;11.510;2022-08-03T11:55:43;2.47;;;0.73;;
13108;SDS011;6620;53.734;11.510;2022-08-03T11:58:17;2.13;;;0.90;;
13108;SDS011;6620;53.734;11.510;2022-08-03T12:00:43;2.15;;;1.00;;
13108;SDS011;6620;53.734;11.510;2022-08-03T12:03:09;2.00;;;1.00;;
13108;SDS011;6620;53.734;11.510;2022-08-03T12:05:41;1.15;;;0.90;;
13108;SDS011;6620;53.734;11.510;2022-08-03T12:08:07;2.28;;;1.15;;
13108;SDS011;6620;53.734;11.510;2022-08-03T12:10:33;2.38;;;0.80;;
13108;SDS011;6620;53.734;11.510;2022-08-03T12:12:59;3.03;;;0.82;;
13108;SDS011;6620;53.734;11.510;2022-08-03T12:15:25;1.27;;;1.15;;
13108;SDS011;6620;53.734;11.510;2022-08-03T12:17:50;1.65;;;0.73;;
13108;SDS011;6620;53.734;11.510;2022-08-03T12:20:26;1.42;;;0.90;;
13108;SDS011;6620;53.734;11.510;2022-08-03T12:22:51;2.13;;;0.90;;
13108;SDS011;6620;53.734;11.510;2022-08-03T12:25:26;2.72;;;1.15;;
13108;SDS011;6620;53.734;11.510;2022-08-03T12:27:52;3.47;;;0.85;;
13108;SDS011;6620;53.734;11.510;2022-08-03T12:30:18;4.32;;;0.90;;
13108;SDS011;6620;53.734;11.510;2022-08-03T12:32:43;2.35;;;0.98;;
13108;SDS011;6620;53.734;11.510;2022-08-03T12:35:09;2.47;;;0.50;;
13108;SDS011;6620;53.734;11.510;2022-08-03T12:37:34;3.20;;;0.60;;
13108;SDS011;6620;53.734;11.510;2022-08-03T12:39:59;2.13;;;0.60;;
13108;SDS011;6620;53.734;11.510;2022-08-03T12:42:29;3.67;;;0.88;;
13108;SDS011;6620;53.734;11.510;2022-08-03T12:44:54;4.03;;;0.52;;
13108;SDS011;6620;53.734;11.510;2022-08-03T12:47:19;3.50;;;0.83;;
13108;SDS011;6620;53.734;11.510;2022-08-03T12:49:45;2.33;;;0.40;;
13108;SDS011;6620;53.734;11.510;2022-08-03T12:52:10;2.22;;;0.82;;
13108;SDS011;6620;53.734;11.510;2022-08-03T12:54:36;1.55;;;0.68;;
13108;SDS011;6620;53.734;11.510;2022-08-03T12:57:06;2.67;;;0.55;;
13108;SDS011;6620;53.734;11.510;2022-08-03T12:59:33;3.40;;;0.50;;
13108;SDS011;6620;53.734;11.510;2022-08-03T13:01:58;1.33;;;0.70;;
13108;SDS011;6620;53.734;11.510;2022-08-03T13:04:31;4.75;;;0.50;;
13108;SDS011;6620;53.734;11.510;2022-08-03T13:06:57;3.95;;;0.55;;
13108;SDS011;6620;53.734;11.510;2022-08-03T13:09:22;1.33;;;0.50;;
13108;SDS011;6620;53.734;11.510;2022-08-03T13:12:03;1.15;;;0.30;;
13108;SDS011;6620;53.734;11.510;2022-08-03T13:14:28;1.58;;;0.50;;
13108;SDS011;6620;53.734;11.510;2022-08-03T13:16:53;3.07;;;0.70;;
13108;SDS011;6620;53.734;11.510;2022-08-03T13:19:18;1.30;;;0.40;;
13108;SDS011;6620;53.734;11.510;2022-08-03T13:21:44;2.53;;;0.50;;
13108;SDS011;6620;53.734;11.510;2022-08-03T13:24:10;4.40;;;0.90;;
13108;SDS011;6620;53.734;11.510;2022-08-03T13:26:35;2.78;;;0.90;;
13108;SDS011;6620;53.734;11.510;2022-08-03T13:29:00;1.73;;;0.57;;
13108;SDS011;6620;53.734;11.510;2022-08-03T13:31:25;1.80;;;0.40;;
13108;SDS011;6620;53.734;11.510;2022-08-03T13:33:50;4.07;;;0.77;;
13108;SDS011;6620;53.734;11.510;2022-08-03T13:36:16;1.90;;;0.50;;
13108;SDS011;6620;53.734;11.510;2022-08-03T13:38:41;4.13;;;0.65;;
13108;SDS011;6620;53.734;11.510;2022-08-03T13:41:06;2.73;;;0.47;;
13108;SDS011;6620;53.734;11.510;2022-08-03T13:43:31;2.40;;;0.73;;
13108;SDS011;6620;53.734;11.510;2022-08-03T13:45:56;1.77;;;0.50;;
13108;SDS011;6620;53.734;11.510;2022-08-03T13:48:22;4.30;;;0.60;;
13108;SDS011;6620;53.734;11.510;2022-08-03T13:50:47;2.83;;;0.80;;
13108;SDS011;6620;53.734;11.510;2022-08-03T13:53:12;4.17;;;0.60;;
13108;SDS011;6620;53.734;11.510;2022-08-03T13:55:37;2.85;;;0.95;;
13108;SDS011;6620;53.734;11.510;2022-08-03T13:58:03;1.27;;;0.60;;
13108;SDS011;6620;53.734;11.510;2022-08-03T14:00:28;2.73;;;0.63;;
13108;SDS011;6620;53.734;11.510;2022-08-03T14:02:53;2.40;;;0.50;;
13108;SDS011;6620;53.734;11.510;2022-08-03T14:05:19;2.70;;;0.57;;
13108;SDS011;6620;53.734;11.510;2022-08-03T14:07:44;3.22;;;0.40;;
13108;SDS011;6620;53.734;11.510;2022-08-03T14:10:09;4.55;;;0.73;;
13108;SDS011;6620;53.734;11.510;2022-08-03T14:12:35;3.27;;;0.57;;
13108;SDS011;6620;53.734;11.510;2022-08-03T14:15:00;4.27;;;0.80;;
13108;SDS011;6620;53.734;11.510;2022-08-03T14:17:25;1.90;;;0.50;;
13108;SDS011;6620;53.734;11.510;2022-08-03T14:19:50;3.87;;;0.83;;
13108;SDS011;6620;53.734;11.510;2022-08-03T14:22:15;3.63;;;0.70;;
13108;SDS011;6620;53.734;11.510;2022-08-03T14:24:40;3.10;;;0.90;;
13108;SDS011;6620;53.734;11.510;2022-08-03T14:27:06;1.43;;;0.70;;
13108;SDS011;6620;53.734;11.510;2022-08-03T14:29:31;3.13;;;1.05;;
13108;SDS011;6620;53.734;11.510;2022-08-03T14:31:56;3.00;;;0.57;;
13108;SDS011;6620;53.734;11.510;2022-08-03T14:34:21;1.52;;;0.70;;
13108;SDS011;6620;53.734;11.510;2022-08-03T14:36:47;2.00;;;0.60;;
13108;SDS011;6620;53.734;11.510;2022-08-03T14:39:12;1.60;;;0.43;;
13108;SDS011;6620;53.734;11.510;2022-08-03T14:41:38;1.02;;;0.55;;
13108;SDS011;6620;53.734;11.510;2022-08-03T14:44:03;3.55;;;0.55;;
13108;SDS011;6620;53.734;11.510;2022-08-03T14:46:29;3.08;;;0.63;;
13108;SDS011;6620;53.734;11.510;2022-08-03T14:48:54;2.10;;;0.55;;
13108;SDS011;6620;53.734;11.510;2022-08-03T14:51:19;2.00;;;0.50;;
13108;SDS011;6620;53.734;11.510;2022-08-03T14:53:44;4.70;;;0.60;;
13108;SDS011;6620;53.734;11.510;2022-08-03T14:56:10;2.55;;;0.60;;
13108;SDS011;6620;53.734;11.510;2022-08-03T14:58:35;1.30;;;0.40;;
13108;SDS011;6620;53.734;11.510;2022-08-03T15:01:01;1.43;;;0.70;;
13108;SDS011;6620;53.734;11.510;2022-08-03T15:03:26;2.35;;;0.55;;
13108;SDS011;6620;53.734;11.510;2022-08-03T15:05:51;3.23;;;0.93;;
13108;SDS011;6620;53.734;11.510;2022-08-03T15:08:17;4.13;;;0.65;;
13108;SDS011;6620;53.734;11.510;2022-08-03T15:10:42;5.80;;;1.33;;
13108;SDS011;6620;53.734;11.510;2022-08-03T15:13:08;3.55;;;0.60;;
13108;SDS011;6620;53.734;11.510;2022-08-03T15:15:33;4.17;;;0.60;;
13108;SDS011;6620;53.734;11.510;2022-08-03T15:17:58;0.97;;;0.47;;
13108;SDS011;6620;53.734;11.510;2022-08-03T15:20:23;3.10;;;0.80;;
13108;SDS011;6620;53.734;11.510;2022-08-03T15:22:49;3.85;;;0.65;;
13108;SDS011;6620;53.734;11.510;2022-08-03T15:25:14;2.65;;;0.75;;
13108;SDS011;6620;53.734;11.510;2022-08-03T15:27:39;3.77;;;0.70;;